Time;durP1;ratioP1;P1;durP2;ratioP2;P2;SDS_P1;SDS_P2;PMS_P1;PMS_P2;Temp;Humidity;BMP_temperature;BMP_pressure;BME280_temperature;BME280_humidity;BME280_pressure;Samples;Min_cycle;Max_cycle;Signal;HPM_P1;HPM_P2
2020/12/18 00:01:30;;;;;;;24.37;14.85;;;;;;;0.95;91.01;98166.33;1829199;78;21312;-78
2020/12/18 00:03:57;;;;;;;23.50;12.73;;;;;;;0.99;91.04;98166.61;1828094;78;21052;-77
2020/12/18 00:06:27;;;;;;;24.02;11.95;;;;;;;1.03;90.95;98173.33;1828986;78;20976;-78
2020/12/18 00:08:54;;;;;;;24.95;15.50;;;;;;;1.06;90.99;98170.21;1828768;78;21494;-80
2020/12/18 00:11:23;;;;;;;28.33;14.73;;;;;;;1.07;90.85;98171.88;1830004;78;21187;-78
2020/12/18 00:13:51;;;;;;;20.95;10.63;;;;;;;1.08;90.96;98171.02;1829412;78;21020;-80
2020/12/18 00:16:19;;;;;;;20.43;9.68;;;;;;;1.08;90.79;98175.31;1830053;78;20988;-78
2020/12/18 00:18:47;;;;;;;21.37;10.37;;;;;;;1.07;90.80;98167.20;1829724;78;21067;-80
2020/12/18 00:21:18;;;;;;;23.25;11.00;;;;;;;1.02;90.63;98169.92;1829319;78;21379;-77
2020/12/18 00:23:45;;;;;;;21.80;9.80;;;;;;;0.96;90.40;98171.84;1829608;78;21232;-78
2020/12/18 00:26:15;;;;;;;21.12;10.08;;;;;;;0.87;90.61;98167.00;1830341;78;20945;-79
2020/12/18 00:28:43;;;;;;;22.15;9.88;;;;;;;0.88;91.15;98167.39;1828777;78;21071;-80
2020/12/18 00:31:10;;;;;;;23.18;11.78;;;;;;;0.90;91.20;98165.62;1829388;78;21259;-76
2020/12/18 00:33:37;;;;;;;26.00;16.27;;;;;;;0.86;91.17;98162.77;1828143;78;21411;-80
2020/12/18 00:36:05;;;;;;;25.97;15.60;;;;;;;0.85;91.38;98160.66;1827256;78;21882;-78
2020/12/18 00:38:32;;;;;;;23.70;11.15;;;;;;;0.86;91.51;98158.48;1826655;78;20969;-80
2020/12/18 00:41:01;;;;;;;22.10;10.03;;;;;;;0.87;91.47;98156.77;1826200;78;20976;-80
2020/12/18 00:43:28;;;;;;;23.18;8.88;;;;;;;0.83;91.49;98155.59;1826195;78;20881;-79
2020/12/18 00:45:55;;;;;;;20.32;9.15;;;;;;;0.79;91.56;98159.11;1825527;78;21312;-79
2020/12/18 00:48:23;;;;;;;21.17;9.45;;;;;;;0.73;91.71;98152.89;1826711;78;21856;-78
2020/12/18 00:50:52;;;;;;;21.27;10.93;;;;;;;0.70;91.91;98164.52;1823619;78;20969;-77
2020/12/18 00:53:19;;;;;;;24.25;11.95;;;;;;;0.68;92.02;98163.73;1825855;78;20882;-77
2020/12/18 00:55:46;;;;;;;21.82;11.60;;;;;;;0.69;92.16;98164.13;1826083;78;21041;-77
2020/12/18 00:58:13;;;;;;;26.87;10.70;;;;;;;0.71;92.25;98164.91;1796348;78;21518;-76
2020/12/18 01:00:41;;;;;;;27.75;14.78;;;;;;;0.74;92.19;98167.81;1826003;78;21201;-77
2020/12/18 01:03:10;;;;;;;25.37;15.23;;;;;;;0.75;92.16;98177.20;1824120;78;21151;-77
2020/12/18 01:05:37;;;;;;;21.90;11.18;;;;;;;0.75;92.12;98170.80;1825643;78;20910;-77
2020/12/18 01:08:06;;;;;;;21.50;10.60;;;;;;;0.70;92.17;98174.77;1826283;78;20925;-79
2020/12/18 01:10:33;;;;;;;24.60;13.60;;;;;;;0.68;92.23;98168.02;1826186;78;21100;-78
2020/12/18 01:13:01;;;;;;;30.23;18.82;;;;;;;0.66;92.31;98157.80;1825877;78;21363;-78
2020/12/18 01:15:30;;;;;;;27.15;14.58;;;;;;;0.68;92.42;98152.22;1825098;78;21056;-77
2020/12/18 01:17:58;;;;;;;24.82;10.30;;;;;;;0.69;92.44;98165.85;1826310;78;21323;-78
2020/12/18 01:20:27;;;;;;;21.17;11.00;;;;;;;0.71;92.60;98167.47;1825674;78;21019;-78
2020/12/18 01:22:54;;;;;;;22.13;9.90;;;;;;;0.75;92.50;98169.06;1825736;78;21157;-77
2020/12/18 01:25:23;;;;;;;23.15;10.53;;;;;;;0.78;92.30;98177.09;1826782;78;20965;-79
2020/12/18 01:27:50;;;;;;;23.17;11.17;;;;;;;0.75;92.19;98176.75;1826064;78;21051;-78
2020/12/18 01:30:18;;;;;;;21.23;10.50;;;;;;;0.77;92.32;98176.25;1826205;78;20989;-79
2020/12/18 01:32:45;;;;;;;22.52;10.60;;;;;;;0.79;92.19;98180.88;1795420;78;21036;-78
2020/12/18 01:35:13;;;;;;;20.57;10.67;;;;;;;0.72;91.80;98185.78;1826285;78;20917;-79
2020/12/18 01:37:42;;;;;;;22.20;10.30;;;;;;;0.61;91.58;98175.04;1824250;78;21202;-77
2020/12/18 01:40:10;;;;;;;20.95;9.80;;;;;;;0.50;91.85;98182.21;1826129;78;21162;-77
2020/12/18 01:42:39;;;;;;;24.83;11.10;;;;;;;0.40;92.04;98180.33;1826542;78;20981;-79
2020/12/18 01:45:06;;;;;;;21.90;10.55;;;;;;;0.38;92.56;98183.83;1796470;78;20874;-79
2020/12/18 01:47:35;;;;;;;24.43;11.60;;;;;;;0.38;92.84;98178.27;1821804;78;20901;-77
2020/12/18 01:50:04;;;;;;;21.50;10.43;;;;;;;0.41;92.98;98187.56;1825414;78;21198;-78
2020/12/18 01:52:34;;;;;;;23.80;9.30;;;;;;;0.43;93.11;98181.98;1824846;78;21114;-85
2020/12/18 01:55:05;;;;;;;21.50;10.32;;;;;;;0.48;93.15;98182.67;1825383;78;21131;-84
2020/12/18 01:57:36;;;;;;;23.03;9.97;;;;;;;0.49;93.18;98185.18;1826023;78;20997;-85
2020/12/18 02:00:06;;;;;;;22.07;9.33;;;;;;;0.54;93.29;98189.73;1826274;78;20977;-83
2020/12/18 02:02:42;;;;;;;23.60;9.75;;;;;;;0.59;93.05;98196.02;1825144;78;21793;-84
2020/12/18 02:05:12;;;;;;;23.55;9.53;;;;;;;0.56;92.60;98194.80;1821097;78;20948;-81
2020/12/18 02:07:39;;;;;;;21.43;9.53;;;;;;;0.48;92.70;98196.30;1796012;78;21323;-82
2020/12/18 02:10:08;;;;;;;21.07;9.63;;;;;;;0.46;92.90;98198.52;1755302;78;21064;-83
2020/12/18 02:12:37;;;;;;;19.57;8.97;;;;;;;0.46;93.03;98203.64;1825158;78;21028;-83
2020/12/18 02:15:04;;;;;;;23.12;10.98;;;;;;;0.48;93.19;98200.59;1795615;78;21662;-82
2020/12/18 02:17:33;;;;;;;22.17;10.27;;;;;;;0.51;93.05;98202.64;1821080;78;20945;-83
2020/12/18 02:20:03;;;;;;;22.52;9.85;;;;;;;0.49;92.88;98202.27;1796150;78;21135;-84
2020/12/18 02:22:31;;;;;;;28.83;12.60;;;;;;;0.51;93.14;98200.52;1795873;78;21569;-83
2020/12/18 02:25:09;;;;;;;26.20;9.80;;;;;;;0.56;93.14;98206.32;1824226;78;20924;-82
2020/12/18 02:27:41;;;;;;;21.63;10.43;;;;;;;0.58;92.95;98210.98;1824424;78;21410;-83
2020/12/18 02:30:13;;;;;;;21.07;9.00;;;;;;;0.54;92.70;98202.98;1824177;78;21355;-82
2020/12/18 02:32:42;;;;;;;18.73;8.40;;;;;;;0.51;92.75;98215.88;1822066;78;21105;-81
2020/12/18 02:35:09;;;;;;;18.82;8.98;;;;;;;0.48;92.81;98210.83;1824827;78;20933;-81
2020/12/18 02:37:38;;;;;;;21.13;8.90;;;;;;;0.46;92.76;98211.31;1827574;78;21307;-83
2020/12/18 02:40:07;;;;;;;20.32;9.38;;;;;;;0.43;92.79;98205.86;1828386;78;22457;-84
2020/12/18 02:42:38;;;;;;;20.15;8.75;;;;;;;0.45;92.93;98210.48;1825648;78;20914;-84
2020/12/18 02:45:07;;;;;;;20.93;9.27;;;;;;;0.48;93.00;98205.70;1827971;78;21015;-83
2020/12/18 02:47:40;;;;;;;19.47;8.60;;;;;;;0.52;92.87;98210.70;1828862;78;20993;-80
2020/12/18 02:50:10;;;;;;;22.37;10.08;;;;;;;0.50;92.74;98216.32;1827380;78;20937;-78
2020/12/18 02:52:42;;;;;;;18.42;8.20;;;;;;;0.46;92.73;98214.72;1827664;78;21657;-77
2020/12/18 02:55:29;;;;;;;20.88;9.18;;;;;;;0.42;92.73;98213.58;1795950;78;21064;-78
2020/12/18 02:58:15;;;;;;;20.23;9.10;;;;;;;0.42;93.02;98219.53;1828670;78;21098;-78
2020/12/18 03:00:47;;;;;;;21.57;9.20;;;;;;;0.46;93.16;98215.99;1828469;78;28145;-78
2020/12/18 03:03:15;;;;;;;21.40;9.43;;;;;;;0.48;93.05;98214.22;1828889;78;20956;-77
2020/12/18 03:05:44;;;;;;;21.30;9.80;;;;;;;0.52;93.13;98211.15;1828769;78;21197;-77
2020/12/18 03:08:13;;;;;;;23.83;10.60;;;;;;;0.59;93.24;98216.49;1827204;78;20937;-78
2020/12/18 03:10:40;;;;;;;24.23;9.63;;;;;;;0.65;93.21;98217.57;1829186;78;21111;-77
2020/12/18 03:13:08;;;;;;;30.97;11.43;;;;;;;0.70;93.09;98215.72;1828356;78;20936;-78
2020/12/18 03:15:35;;;;;;;22.93;9.23;;;;;;;0.73;92.98;98216.90;1828138;78;21080;-80
2020/12/18 03:18:04;;;;;;;21.40;10.03;;;;;;;0.73;92.77;98215.63;1824898;78;21363;-78
2020/12/18 03:20:33;;;;;;;18.85;8.83;;;;;;;0.74;92.69;98216.45;1828137;78;21130;-77
2020/12/18 03:23:18;;;;;;;22.17;10.23;;;;;;;0.72;92.49;98210.11;1827875;78;21319;-78
2020/12/18 03:26:04;;;;;;;22.50;9.83;;;;;;;0.74;92.59;98216.02;1827554;78;20980;-77
2020/12/18 03:28:33;;;;;;;19.07;8.53;;;;;;;0.82;92.62;98224.30;1827146;78;21106;-77
2020/12/18 03:31:01;;;;;;;17.05;7.78;;;;;;;0.88;92.49;98219.45;1827733;78;21189;-77
2020/12/18 03:33:28;;;;;;;18.52;8.73;;;;;;;0.92;92.13;98221.50;1827500;78;21095;-76
2020/12/18 03:35:58;;;;;;;18.48;8.48;;;;;;;0.94;91.88;98221.00;1825353;78;20893;-77
2020/12/18 03:38:25;;;;;;;20.15;7.97;;;;;;;0.97;91.70;98219.17;1827670;78;20986;-77
2020/12/18 03:40:52;;;;;;;16.23;7.87;;;;;;;0.98;91.38;98223.41;1827550;78;21099;-76
2020/12/18 03:43:21;;;;;;;16.30;8.20;;;;;;;1.02;91.27;98219.04;1827116;78;21213;-77
2020/12/18 03:45:48;;;;;;;19.35;8.65;;;;;;;1.01;90.95;98216.92;1800612;78;21534;-76
2020/12/18 03:48:33;;;;;;;20.85;9.55;;;;;;;1.00;90.56;98216.98;1827451;78;20977;-76
2020/12/18 03:51:03;;;;;;;18.15;7.90;;;;;;;0.95;90.61;98218.38;1825423;78;21016;-77
2020/12/18 03:53:31;;;;;;;18.60;8.13;;;;;;;0.95;90.67;98218.83;1827714;78;21134;-77
2020/12/18 03:56:00;;;;;;;20.07;9.03;;;;;;;0.93;90.71;98217.60;1826055;78;22008;-76
2020/12/18 03:58:32;;;;;;;20.15;8.05;;;;;;;0.90;90.56;98221.52;1819002;78;21367;-77
2020/12/18 04:01:10;;;;;;;23.10;10.57;;;;;;;0.87;90.69;98216.95;1826539;78;21051;-77
2020/12/18 04:03:37;;;;;;;18.80;7.87;;;;;;;0.84;90.88;98212.31;1827609;78;20934;-77
2020/12/18 04:06:06;;;;;;;18.70;8.40;;;;;;;0.86;90.98;98217.83;1827497;78;20897;-77
2020/12/18 04:08:33;;;;;;;19.37;8.43;;;;;;;0.89;91.17;98221.56;1827740;78;21844;-77
2020/12/18 04:11:13;;;;;;;21.07;10.23;;;;;;;0.90;91.26;98224.08;1805463;78;21506;-77
2020/12/18 04:13:42;;;;;;;19.77;8.88;;;;;;;0.96;91.46;98223.06;1825567;78;21154;-78
2020/12/18 04:16:11;;;;;;;18.00;8.43;;;;;;;1.01;91.13;98226.33;1827748;78;21442;-77
2020/12/18 04:18:39;;;;;;;19.82;9.93;;;;;;;1.01;91.04;98222.05;1827770;78;21391;-77
2020/12/18 04:21:08;;;;;;;20.72;8.98;;;;;;;1.05;90.97;98224.06;1828079;78;20913;-78
2020/12/18 04:23:43;;;;;;;20.47;9.57;;;;;;;1.04;90.80;98229.62;1826954;78;20945;-77
2020/12/18 04:26:15;;;;;;;28.10;12.47;;;;;;;0.97;90.67;98230.70;1826874;78;21430;-77
2020/12/18 04:28:43;;;;;;;25.77;10.48;;;;;;;0.91;90.82;98230.91;1827764;78;21087;-77
2020/12/18 04:31:11;;;;;;;23.07;10.13;;;;;;;0.89;91.17;98232.65;1828432;78;21127;-77
2020/12/18 04:33:38;;;;;;;24.80;9.93;;;;;;;0.90;91.27;98232.20;1828033;78;21110;-78
2020/12/18 04:36:06;;;;;;;23.47;10.72;;;;;;;0.87;91.33;98234.87;1828114;78;20886;-76
2020/12/18 04:38:35;;;;;;;27.52;10.70;;;;;;;0.88;91.51;98235.26;1827166;78;20992;-77
2020/12/18 04:41:04;;;;;;;27.42;11.55;;;;;;;0.90;91.77;98238.61;1827261;78;21126;-77
2020/12/18 04:43:48;;;;;;;25.15;13.03;;;;;;;0.94;91.84;98234.64;1827527;78;20925;-78
2020/12/18 04:46:18;;;;;;;28.70;11.90;;;;;;;0.97;91.73;98234.98;1827910;78;21322;-77
2020/12/18 04:48:47;;;;;;;27.13;12.50;;;;;;;0.99;91.68;98235.32;1828707;78;21095;-77
2020/12/18 04:51:19;;;;;;;26.15;13.50;;;;;;;0.98;91.37;98232.81;1828323;78;21016;-76
2020/12/18 04:53:50;;;;;;;25.40;11.30;;;;;;;0.90;91.31;98234.77;1827227;78;21016;-76
2020/12/18 04:56:23;;;;;;;27.55;12.85;;;;;;;0.84;91.63;98234.53;1826586;78;20945;-76
2020/12/18 04:58:56;;;;;;;24.47;10.25;;;;;;;0.83;91.96;98229.84;1826110;78;21877;-76
2020/12/18 05:01:25;;;;;;;28.60;12.20;;;;;;;0.86;91.92;98230.64;1826493;78;20981;-76
2020/12/18 05:03:54;;;;;;;26.07;12.57;;;;;;;0.87;91.92;98226.74;1826037;78;21067;-76
2020/12/18 05:06:22;;;;;;;27.07;13.03;;;;;;;0.90;91.80;98229.64;1827567;78;20977;-76
2020/12/18 05:08:49;;;;;;;27.20;12.47;;;;;;;0.92;91.86;98231.73;1827626;78;20996;-76
2020/12/18 05:11:26;;;;;;;29.18;13.18;;;;;;;0.94;91.86;98229.96;1827604;78;22325;-76
2020/12/18 05:13:55;;;;;;;27.98;14.23;;;;;;;1.00;91.78;98229.78;1826599;78;20981;-76
2020/12/18 05:16:23;;;;;;;29.30;14.45;;;;;;;1.06;91.81;98233.41;1827459;78;21099;-76
2020/12/18 05:19:09;;;;;;;27.37;13.33;;;;;;;1.08;91.50;98229.94;1827567;78;21305;-76
2020/12/18 05:21:44;;;;;;;28.25;13.55;;;;;;;1.11;91.40;98227.72;1798118;78;21150;-76
2020/12/18 05:24:13;;;;;;;31.50;14.03;;;;;;;1.13;91.29;98222.94;1826874;78;21111;-76
2020/12/18 05:26:42;;;;;;;28.37;12.93;;;;;;;1.19;91.31;98231.33;1827110;78;21004;-77
2020/12/18 05:29:10;;;;;;;27.58;13.98;;;;;;;1.21;91.13;98226.54;1827730;78;21055;-77
2020/12/18 05:31:43;;;;;;;26.62;13.13;;;;;;;1.24;90.90;98226.88;1807829;78;21446;-77
2020/12/18 05:34:12;;;;;;;27.75;13.65;;;;;;;1.26;90.92;98232.81;1827101;78;21146;-76
2020/12/18 05:36:47;;;;;;;27.20;13.73;;;;;;;1.38;90.86;98224.27;1853992;77;22722;-76
2020/12/18 05:39:16;;;;;;;27.63;13.07;;;;;;;1.39;90.55;98231.08;1850738;77;20971;-76
2020/12/18 05:41:57;;;;;;;28.12;14.68;;;;;;;1.46;90.22;98227.88;1850699;77;20912;-76
2020/12/18 05:44:27;;;;;;;35.50;16.23;;;;;;;1.47;89.81;98235.12;1850663;77;21333;-77
2020/12/18 05:47:07;;;;;;;;;;;;;;;1.46;89.74;98230.89;1850290;77;20880;-77
2020/12/18 05:49:40;;;;;;;26.77;14.47;;;;;;;1.47;89.64;98229.99;1852017;77;20418;-77
2020/12/18 05:52:20;;;;;;;31.85;15.70;;;;;;;1.47;89.60;98237.69;1851191;76;21380;-77
2020/12/18 05:54:54;;;;;;;27.87;14.15;;;;;;;1.46;89.53;98239.41;1853190;76;21271;-77
2020/12/18 05:57:23;;;;;;;31.57;13.95;;;;;;;1.46;89.63;98249.66;1850584;76;20941;-76
2020/12/18 05:59:53;;;;;;;28.10;14.17;;;;;;;1.48;89.69;98248.33;1838935;76;21004;-76
2020/12/18 06:02:22;;;;;;;32.45;14.95;;;;;;;1.52;89.73;98249.92;1856585;76;21147;-78
2020/12/18 06:05:00;;;;;;;31.23;15.23;;;;;;;1.59;89.82;98253.97;1827772;76;21125;-79
2020/12/18 06:07:41;;;;;;;28.27;14.50;;;;;;;1.63;89.49;98257.64;1822074;77;21461;-81
2020/12/18 06:10:10;;;;;;;34.00;15.83;;;;;;;1.64;89.26;98269.57;1826520;77;21147;-83
2020/12/18 06:13:01;;;;;;;36.00;15.60;;;;;;;1.64;89.14;98267.45;1820177;78;21052;-82
2020/12/18 06:15:30;;;;;;;35.28;16.35;;;;;;;1.59;88.92;98275.76;1808584;78;21169;-82
2020/12/18 06:18:03;;;;;;;39.03;17.87;;;;;;;1.54;89.06;98282.30;1795408;78;21089;-81
2020/12/18 06:20:34;;;;;;;35.00;15.70;;;;;;;1.52;89.24;98281.97;1801299;78;21313;-79
2020/12/18 06:23:04;;;;;;;37.75;17.10;;;;;;;1.50;89.38;98283.75;1811824;77;21026;-83
2020/12/18 06:25:50;;;;;;;37.30;16.48;;;;;;;1.51;89.55;98280.30;1855028;77;20919;-84
2020/12/18 06:28:22;;;;;;;35.03;16.07;;;;;;;1.54;89.58;98279.73;1854646;77;21049;-81
2020/12/18 06:31:04;;;;;;;38.37;18.63;;;;;;;1.56;89.42;98288.21;1838579;76;21157;-82
2020/12/18 06:33:51;;;;;;;42.27;18.50;;;;;;;1.62;89.47;98285.91;1851628;76;22834;-84
2020/12/18 06:36:48;;;;;;;40.48;19.87;;;;;;;1.61;89.54;98290.64;1841093;77;21163;-84
2020/12/18 06:39:33;;;;;;;44.33;21.73;;;;;;;1.62;89.49;98296.16;1840067;77;21277;-80
2020/12/18 06:42:23;;;;;;;46.08;21.52;;;;;;;1.62;89.47;98293.59;1823425;77;20973;-82
2020/12/18 06:45:09;;;;;;;41.50;19.73;;;;;;;1.61;89.44;98291.48;1833061;77;21461;-85
2020/12/18 06:47:54;;;;;;;42.50;19.80;;;;;;;1.59;89.32;98290.70;1821786;77;21094;-82
2020/12/18 06:50:33;;;;;;;37.85;19.57;;;;;;;1.57;89.47;98294.17;1822944;77;21017;-81
2020/12/18 06:53:20;;;;;;;52.27;29.60;;;;;;;1.54;89.64;98287.43;1854937;76;22495;-81
2020/12/18 06:55:49;;;;;;;42.58;21.05;;;;;;;1.55;89.62;98299.80;1813440;78;20945;-80
2020/12/18 06:58:33;;;;;;;38.08;19.07;;;;;;;1.52;89.59;98307.60;1803883;79;20961;-79
2020/12/18 07:01:01;;;;;;;43.15;22.32;;;;;;;1.50;89.74;98304.26;1843687;76;21583;-78
2020/12/18 07:03:45;;;;;;;46.25;21.50;;;;;;;1.48;89.98;98304.72;1816619;77;21147;-82
2020/12/18 07:06:24;;;;;;;40.88;18.48;;;;;;;1.47;90.03;98307.73;1823223;78;22107;-78
2020/12/18 07:08:51;;;;;;;36.88;17.07;;;;;;;1.48;90.14;98312.41;1810881;78;21407;-80
2020/12/18 07:11:22;;;;;;;38.65;18.27;;;;;;;1.47;90.26;98309.02;1802345;78;20991;-80
2020/12/18 07:13:53;;;;;;;37.55;18.73;;;;;;;1.46;90.22;98315.47;1811281;77;21165;-83
2020/12/18 07:16:21;;;;;;;31.43;16.67;;;;;;;1.45;90.32;98306.11;1795815;77;21176;-79
2020/12/18 07:18:49;;;;;;;35.13;18.70;;;;;;;1.47;90.53;98309.02;1791895;78;21185;-83
2020/12/18 07:21:18;;;;;;;37.75;17.52;;;;;;;1.51;90.50;98311.89;1800977;78;21176;-81
2020/12/18 07:23:47;;;;;;;33.95;17.57;;;;;;;1.56;90.58;98310.00;1803982;78;21556;-84
2020/12/18 07:26:17;;;;;;;33.20;17.15;;;;;;;1.60;90.43;98310.77;1811980;77;21550;-78
2020/12/18 07:28:45;;;;;;;37.28;20.68;;;;;;;1.63;90.34;98312.77;1808736;77;21117;-80
2020/12/18 07:31:23;;;;;;;35.38;17.52;;;;;;;1.66;90.18;98318.27;1814088;77;21728;-78
2020/12/18 07:34:00;;;;;;;37.93;19.35;;;;;;;1.67;90.24;98308.41;1809857;77;21178;-79
2020/12/18 07:36:28;;;;;;;38.45;18.57;;;;;;;1.71;90.14;98309.97;1813610;78;21508;-82
2020/12/18 07:38:57;;;;;;;34.63;17.27;;;;;;;1.74;90.10;98316.72;1826154;77;21033;-81
2020/12/18 07:41:26;;;;;;;34.95;18.00;;;;;;;1.76;90.02;98319.64;1800301;79;21151;-80
2020/12/18 07:43:54;;;;;;;33.25;16.40;;;;;;;1.76;89.92;98323.94;1856007;77;21851;-80
2020/12/18 07:46:21;;;;;;;31.20;15.90;;;;;;;1.74;89.91;98318.86;1805722;78;21122;-84
2020/12/18 07:48:48;;;;;;;36.05;17.82;;;;;;;1.74;89.89;98315.43;1826160;78;21376;-80
2020/12/18 07:51:19;;;;;;;39.70;18.95;;;;;;;1.72;90.06;98316.77;1824499;78;21573;-83
2020/12/18 07:53:52;;;;;;;37.55;18.40;;;;;;;1.72;90.11;98315.48;1826601;78;21522;-81
2020/12/18 07:56:20;;;;;;;;;;;;;;;1.70;90.03;98315.98;1816815;77;21506;-81
2020/12/18 07:59:06;;;;;;;32.75;16.48;;;;;;;1.67;89.97;98317.37;1797309;77;20113;-84
2020/12/18 08:04:23;;;;;;;35.65;17.32;;;;;;;1.56;90.43;98309.17;1835708;77;21048;-80
2020/12/18 08:06:50;;;;;;;36.30;16.73;;;;;;;1.56;90.45;98313.02;1828519;78;21072;-81
2020/12/18 08:09:19;;;;;;;35.45;16.87;;;;;;;1.55;90.79;98318.59;1847477;76;21590;-78
2020/12/18 08:11:52;;;;;;;32.73;14.45;;;;;;;1.56;90.89;98313.02;1814280;78;21148;-76
2020/12/18 08:14:20;;;;;;;41.80;18.70;;;;;;;1.58;90.92;98317.67;1816448;78;21139;-80
2020/12/18 08:16:48;;;;;;;38.95;19.23;;;;;;;1.57;90.98;98319.40;1825300;78;21602;-79
2020/12/18 08:19:15;;;;;;;34.98;18.05;;;;;;;1.55;91.14;98321.15;1829963;78;21151;-79
2020/12/18 08:21:45;;;;;;;37.80;17.77;;;;;;;1.55;91.31;98318.59;1820044;78;21024;-79
2020/12/18 08:24:35;;;;;;;37.00;20.50;;;;;;;1.54;91.28;98325.05;1823244;77;21198;-80
2020/12/18 08:27:22;;;;;;;36.03;16.25;;;;;;;1.50;91.41;98324.77;1823441;78;20928;-81
2020/12/18 08:29:49;;;;;;;32.73;16.37;;;;;;;1.46;91.64;98325.73;1819064;78;21086;-79
2020/12/18 08:32:26;;;;;;;36.83;17.43;;;;;;;1.41;91.67;98319.48;1819327;78;21185;-81
2020/12/18 08:35:02;;;;;;;38.03;19.23;;;;;;;1.39;91.77;98323.34;1810259;77;22732;-80
2020/12/18 08:37:29;;;;;;;36.73;17.73;;;;;;;1.35;92.24;98326.06;1788130;79;21337;-83
2020/12/18 08:39:56;;;;;;;38.83;19.45;;;;;;;1.37;92.41;98318.72;1808588;78;21187;-81
2020/12/18 08:42:23;;;;;;;42.90;19.92;;;;;;;1.45;92.51;98324.05;1792897;78;21033;-83
2020/12/18 08:44:50;;;;;;;35.40;18.80;;;;;;;1.51;92.60;98317.47;1781098;78;21011;-84
2020/12/18 08:47:25;;;;;;;40.58;19.02;;;;;;;1.56;92.54;98315.13;1787450;78;20884;-81
2020/12/18 08:49:57;;;;;;;34.38;17.20;;;;;;;1.62;92.48;98317.95;1797892;78;20980;-79
2020/12/18 08:52:28;;;;;;;37.88;19.17;;;;;;;1.69;92.28;98316.87;1798293;78;21359;-82
2020/12/18 08:55:05;;;;;;;39.88;19.30;;;;;;;1.72;92.04;98312.09;1781258;78;21082;-80
2020/12/18 08:57:33;;;;;;;36.53;18.15;;;;;;;1.78;91.87;98317.86;1797624;78;21026;-81
2020/12/18 09:00:18;;;;;;;38.15;19.15;;;;;;;1.82;91.53;98315.61;1801815;78;21122;-80
2020/12/18 09:02:54;;;;;;;39.67;18.02;;;;;;;1.83;91.44;98312.15;1783513;78;21513;-80
2020/12/18 09:05:52;;;;;;;37.08;18.70;;;;;;;1.86;91.36;98315.05;1789492;79;21334;-78
2020/12/18 09:08:20;;;;;;;35.03;17.23;;;;;;;1.86;91.13;98312.04;1751240;81;21070;-78
2020/12/18 09:10:56;;;;;;;37.45;18.65;;;;;;;1.83;91.20;98309.59;1752647;81;21141;-81
2020/12/18 09:13:28;;;;;;;33.83;16.62;;;;;;;1.84;91.19;98312.98;1749737;81;21070;-79
2020/12/18 09:16:05;;;;;;;35.58;18.07;;;;;;;1.87;91.21;98314.16;1752795;81;21182;-81
2020/12/18 09:18:41;;;;;;;34.08;16.42;;;;;;;1.91;91.24;98317.03;1756629;81;21990;-81
2020/12/18 09:21:12;;;;;;;40.95;19.37;;;;;;;1.94;91.31;98310.51;1740852;81;21178;-79
2020/12/18 09:23:43;;;;;;;40.77;17.77;;;;;;;1.99;91.23;98308.64;1754741;81;21119;-87
2020/12/18 09:26:24;;;;;;;;;;;;;;;2.02;90.95;98308.97;1759027;80;21211;-79
2020/12/18 09:28:51;;;;;;;34.70;18.00;;;;;;;2.02;90.73;98311.54;1752883;81;20557;-78
2020/12/18 09:31:18;;;;;;;30.80;15.43;;;;;;;1.98;90.67;98306.94;1756331;81;22050;-80
2020/12/18 09:33:46;;;;;;;31.50;15.50;;;;;;;1.95;90.77;98314.30;1750288;81;21187;-81
2020/12/18 09:36:19;;;;;;;35.13;15.75;;;;;;;1.91;90.68;98311.91;1738832;81;21107;-80
2020/12/18 09:38:48;;;;;;;31.77;16.42;;;;;;;1.88;90.95;98316.67;1732489;81;26608;-80
2020/12/18 09:41:17;;;;;;;32.67;17.02;;;;;;;1.92;91.12;98318.27;1737068;80;22289;-79
2020/12/18 09:43:47;;;;;;;33.73;16.37;;;;;;;1.94;91.03;98313.91;1761069;80;21187;-78
2020/12/18 09:46:18;;;;;;;31.07;16.15;;;;;;;1.98;91.01;98319.31;1758962;80;21166;-79
2020/12/18 09:48:46;;;;;;;35.43;17.92;;;;;;;2.01;90.79;98323.98;1737990;81;21171;-79
2020/12/18 09:51:17;;;;;;;38.38;19.17;;;;;;;1.98;90.75;98320.60;1756217;81;21222;-81
2020/12/18 09:53:48;;;;;;;34.08;19.15;;;;;;;2.01;90.90;98320.97;1745854;81;21148;-82
2020/12/18 09:56:19;;;;;;;32.58;16.95;;;;;;;2.02;90.90;98316.67;1749942;81;21653;-77
2020/12/18 09:58:51;;;;;;;32.80;17.27;;;;;;;2.03;90.67;98310.64;1743847;81;21186;-77
2020/12/18 10:01:23;;;;;;;33.90;18.27;;;;;;;2.04;90.84;98307.19;1757646;81;20974;-78
2020/12/18 10:03:59;;;;;;;32.88;17.70;;;;;;;2.06;90.80;98303.67;1754676;81;21116;-79
2020/12/18 10:06:32;;;;;;;33.18;18.20;;;;;;;2.09;90.91;98304.03;1725560;81;21165;-79
2020/12/18 10:09:00;;;;;;;33.67;19.00;;;;;;;2.17;90.95;98310.58;1725524;82;21201;-79
2020/12/18 10:11:35;;;;;;;36.03;18.80;;;;;;;2.23;90.79;98315.52;1701177;82;21223;-80
2020/12/18 10:14:02;;;;;;;34.83;17.98;;;;;;;2.29;90.75;98315.73;1733754;81;21167;-80
2020/12/18 10:16:29;;;;;;;37.80;19.50;;;;;;;2.35;90.59;98313.41;1730284;81;21537;-82
2020/12/18 10:18:57;;;;;;;43.35;20.15;;;;;;;2.37;90.46;98309.89;1737629;81;21131;-78
2020/12/18 10:21:25;;;;;;;37.38;18.25;;;;;;;2.41;90.29;98317.89;1740795;81;21815;-78
2020/12/18 10:23:52;;;;;;;33.85;17.40;;;;;;;2.40;90.23;98315.35;1761333;80;21150;-83
2020/12/18 10:26:19;;;;;;;40.65;19.57;;;;;;;2.41;90.26;98317.05;1734627;81;21136;-80
2020/12/18 10:28:46;;;;;;;36.95;21.82;;;;;;;2.42;90.33;98312.31;1755119;81;21628;-79
2020/12/18 10:31:14;;;;;;;43.20;23.73;;;;;;;2.45;90.36;98314.31;1763346;80;21048;-78
2020/12/18 10:33:43;;;;;;;36.38;20.08;;;;;;;2.46;90.29;98312.58;1735659;81;21377;-81
2020/12/18 10:36:12;;;;;;;38.10;20.92;;;;;;;2.46;90.09;98310.84;1751518;80;21613;-82
2020/12/18 10:38:46;;;;;;;37.48;21.20;;;;;;;2.43;89.97;98310.97;1764918;80;21601;-79
2020/12/18 10:41:13;;;;;;;37.48;18.15;;;;;;;2.40;89.95;98307.23;1762291;80;21541;-77
2020/12/18 10:43:41;;;;;;;37.83;20.30;;;;;;;2.42;90.20;98303.32;1728854;81;21549;-82
2020/12/18 10:46:10;;;;;;;36.03;18.20;;;;;;;2.42;90.21;98306.73;1761064;80;21483;-81
2020/12/18 10:48:38;;;;;;;39.42;22.30;;;;;;;2.42;90.03;98309.30;1759187;80;21415;-80
2020/12/18 10:51:05;;;;;;;39.27;20.25;;;;;;;2.40;90.01;98304.67;1759984;80;21129;-82
2020/12/18 10:53:32;;;;;;;37.73;20.80;;;;;;;2.38;90.06;98303.02;1753105;80;21372;-80
2020/12/18 10:56:01;;;;;;;38.88;19.42;;;;;;;2.32;90.02;98295.11;1752464;80;21552;-83
2020/12/18 10:58:28;;;;;;;37.10;18.90;;;;;;;2.29;90.23;98293.91;1762136;80;21240;-79
2020/12/18 11:00:56;;;;;;;36.45;18.87;;;;;;;2.25;90.36;98285.49;1760443;80;21227;-79
2020/12/18 11:03:23;;;;;;;37.55;18.57;;;;;;;2.24;90.56;98289.41;1752110;80;21219;-83
2020/12/18 11:05:50;;;;;;;34.88;18.75;;;;;;;2.22;90.45;98288.59;1759304;80;20974;-81
2020/12/18 11:08:18;;;;;;;38.65;19.55;;;;;;;2.17;90.47;98282.35;1760125;80;21209;-81
2020/12/18 11:10:47;;;;;;;39.30;18.80;;;;;;;2.11;90.59;98285.57;1756951;80;21132;-83
2020/12/18 11:13:14;;;;;;;38.25;20.48;;;;;;;2.06;90.87;98279.74;1762405;80;21015;-83
2020/12/18 11:15:43;;;;;;;36.53;19.98;;;;;;;2.08;91.23;98283.95;1760638;80;21584;-85
2020/12/18 11:18:10;;;;;;;37.53;19.20;;;;;;;2.09;91.28;98280.94;1761817;80;21135;-82
2020/12/18 11:20:39;;;;;;;37.85;19.32;;;;;;;2.10;91.29;98278.31;1750723;80;21221;-78
2020/12/18 11:23:07;;;;;;;34.53;19.07;;;;;;;2.07;91.16;98281.41;1760130;80;21585;-77
2020/12/18 11:25:35;;;;;;;32.48;16.70;;;;;;;2.04;91.31;98281.53;1764445;80;21186;-81
2020/12/18 11:28:02;;;;;;;39.03;17.82;;;;;;;1.98;91.36;98281.28;1761494;80;20938;-82
2020/12/18 11:30:29;;;;;;;37.55;19.35;;;;;;;1.94;91.53;98280.56;1761558;80;20989;-81
2020/12/18 11:32:56;;;;;;;40.12;19.12;;;;;;;1.91;91.66;98272.98;1761543;81;21092;-80
2020/12/18 11:35:23;;;;;;;36.80;21.00;;;;;;;1.89;91.86;98271.33;1774666;80;21548;-79
2020/12/18 11:37:51;;;;;;;42.75;22.15;;;;;;;1.88;91.92;98269.22;1751356;81;21075;-78
2020/12/18 11:40:18;;;;;;;38.05;18.40;;;;;;;1.88;92.03;98269.22;1752474;80;21155;-79
2020/12/18 11:43:04;;;;;;;43.13;21.48;;;;;;;1.92;92.65;98269.97;1761253;80;21130;-78
